Time;durP1;ratioP1;P1;durP2;ratioP2;P2;SDS_P1;SDS_P2;PMS_P1;PMS_P2;Temp;Humidity;BMP_temperature;BMP_pressure;BME280_temperature;BME280_humidity;BME280_pressure;Samples;Min_cycle;Max_cycle;Signal;HPM_P1;HPM_P2
2022/10/09 00:00:11;;;;;;;30.90;20.13;;;11.90;99.90;;;;;;5052862;28;20109;-52
2022/10/09 00:02:37;;;;;;;28.13;19.65;;;12.00;99.90;;;;;;5053036;28;20032;-54
2022/10/09 00:05:03;;;;;;;26.75;20.27;;;11.90;99.90;;;;;;5052586;28;20456;-53
2022/10/09 00:07:29;;;;;;;24.42;18.33;;;11.80;99.90;;;;;;5053207;28;20399;-51
2022/10/09 00:09:54;;;;;;;34.08;20.02;;;11.70;99.90;;;;;;5052670;28;20052;-53
2022/10/09 00:12:20;;;;;;;36.95;20.13;;;11.70;99.90;;;;;;5061380;28;20032;-51
2022/10/09 00:14:46;;;;;;;29.52;19.15;;;11.70;99.90;;;;;;5058672;28;20044;-52
2022/10/09 00:17:11;;;;;;;24.75;19.38;;;11.70;99.90;;;;;;5052790;28;20044;-50
2022/10/09 00:19:37;;;;;;;23.05;18.73;;;11.70;99.90;;;;;;5051788;28;20029;-51
2022/10/09 00:22:03;;;;;;;24.02;20.10;;;11.60;99.90;;;;;;5052685;28;20033;-52
2022/10/09 00:24:28;;;;;;;27.20;20.10;;;11.50;99.90;;;;;;5052587;28;20017;-52
2022/10/09 00:26:54;;;;;;;29.40;20.30;;;11.50;99.90;;;;;;5051174;28;20108;-51
2022/10/09 00:29:19;;;;;;;27.92;18.30;;;11.50;99.90;;;;;;5064689;28;20032;-50
2022/10/09 00:31:47;;;;;;;24.98;18.08;;;11.30;99.90;;;;;;5072429;28;20086;-53
2022/10/09 00:34:14;;;;;;;38.33;18.95;;;11.30;99.90;;;;;;5072332;28;20029;-52
2022/10/09 00:36:39;;;;;;;35.72;18.30;;;11.20;99.90;;;;;;5072389;28;20096;-50
2022/10/09 00:39:05;;;;;;;29.02;19.80;;;11.10;99.90;;;;;;5059719;28;20417;-51
2022/10/09 00:41:32;;;;;;;28.25;17.17;;;11.00;99.90;;;;;;5052428;28;20380;-51
2022/10/09 00:44:00;;;;;;;26.33;18.92;;;10.90;99.90;;;;;;5052256;28;20376;-50
2022/10/09 00:46:45;;;;;;;23.77;16.90;;;10.90;99.90;;;;;;5052337;28;20032;-52
2022/10/09 00:49:19;;;;;;;25.92;17.00;;;10.80;99.90;;;;;;5052055;28;21258;-52
2022/10/09 00:51:48;;;;;;;32.38;15.20;;;10.70;99.90;;;;;;5052171;28;20487;-52
2022/10/09 00:54:16;;;;;;;21.38;16.92;;;10.70;99.90;;;;;;5051836;28;20033;-51
2022/10/09 00:56:42;;;;;;;22.15;15.18;;;10.60;99.90;;;;;;5052083;28;20047;-50
2022/10/09 00:59:09;;;;;;;29.75;15.40;;;10.40;99.90;;;;;;5051747;28;20025;-51
2022/10/09 01:01:35;;;;;;;20.75;14.95;;;10.40;99.90;;;;;;5052011;28;20656;-53
2022/10/09 01:04:01;;;;;;;23.00;15.95;;;10.30;99.90;;;;;;5065667;28;20075;-53
2022/10/09 01:06:54;;;;;;;18.63;13.95;;;10.20;99.90;;;;;;5071777;28;20399;-51
2022/10/09 01:09:25;;;;;;;47.70;14.60;;;10.10;99.90;;;;;;5071684;28;20044;-51
2022/10/09 01:11:58;;;;;;;238.00;21.58;;;10.20;99.90;;;;;;5071776;28;20119;-53
2022/10/09 01:14:31;;;;;;;27.80;16.55;;;10.10;99.90;;;;;;5063929;28;20020;-52
2022/10/09 01:17:34;;;;;;;30.33;16.27;;;10.10;99.90;;;;;;5051553;28;20116;-53
2022/10/09 01:20:25;;;;;;;124.82;18.17;;;10.00;99.90;;;;;;5051232;28;20037;-50
2022/10/09 01:23:02;;;;;;;88.45;18.63;;;10.00;99.90;;;;;;5051594;28;20413;-53
2022/10/09 01:25:38;;;;;;;129.45;21.25;;;10.00;99.90;;;;;;5051637;28;20025;-50
2022/10/09 01:28:06;;;;;;;78.63;17.02;;;10.00;99.90;;;;;;5051286;28;20104;-50
2022/10/09 01:30:33;;;;;;;173.82;19.98;;;9.90;99.90;;;;;;5069991;28;20028;-52
2022/10/09 01:33:00;;;;;;;226.05;20.48;;;9.90;99.90;;;;;;5071341;28;20025;-51
2022/10/09 01:35:27;;;;;;;265.42;24.38;;;9.80;99.90;;;;;;5071543;28;20567;-51
2022/10/09 01:37:53;;;;;;;395.23;26.67;;;9.90;99.90;;;;;;5071161;28;20036;-51
2022/10/09 01:40:21;;;;;;;432.38;24.73;;;9.80;99.90;;;;;;5052762;28;20028;-52
2022/10/09 01:42:47;;;;;;;392.95;25.25;;;9.70;99.90;;;;;;5051411;28;20460;-53
2022/10/09 01:45:14;;;;;;;85.28;16.27;;;9.70;99.90;;;;;;5049748;28;20108;-50
2022/10/09 01:47:40;;;;;;;222.90;18.98;;;9.70;99.90;;;;;;5051220;28;20040;-50
2022/10/09 01:50:23;;;;;;;279.58;20.95;;;9.60;99.90;;;;;;5052314;28;20029;-50
2022/10/09 01:52:54;;;;;;;258.50;18.80;;;9.60;99.90;;;;;;5051111;28;20071;-52
2022/10/09 01:55:42;;;;;;;115.10;16.95;;;9.50;99.90;;;;;;5051367;28;20124;-50
2022/10/09 01:58:34;;;;;;;28.50;12.60;;;9.50;99.90;;;;;;5051164;28;20533;-55
2022/10/09 02:01:16;;;;;;;18.80;13.43;;;9.50;99.90;;;;;;5052190;28;20659;-52
2022/10/09 02:03:44;;;;;;;17.27;13.57;;;9.50;99.90;;;;;;5050904;28;20078;-51
2022/10/09 02:06:13;;;;;;;17.05;12.88;;;9.50;99.90;;;;;;5050917;28;20029;-52
2022/10/09 02:08:40;;;;;;;17.65;12.73;;;9.40;99.90;;;;;;5050964;28;20546;-50
2022/10/09 02:11:07;;;;;;;19.08;13.05;;;9.40;99.90;;;;;;5050937;28;20056;-50
2022/10/09 02:13:34;;;;;;;16.38;12.73;;;9.40;99.90;;;;;;5058658;28;20056;-51
2022/10/09 02:16:09;;;;;;;19.92;11.95;;;9.40;99.90;;;;;;5070759;28;20029;-52
2022/10/09 02:18:44;;;;;;;19.30;10.68;;;9.40;99.90;;;;;;5071054;28;20024;-55
2022/10/09 02:21:24;;;;;;;24.85;11.90;;;9.40;99.90;;;;;;5070919;28;20036;-53
2022/10/09 02:23:50;;;;;;;17.77;11.48;;;9.30;99.90;;;;;;5070922;28;20078;-52
2022/10/09 02:26:17;;;;;;;13.30;10.70;;;9.20;99.90;;;;;;5069346;28;20074;-52
2022/10/09 02:28:43;;;;;;;20.02;11.13;;;9.20;99.90;;;;;;5070855;28;20021;-52
2022/10/09 02:31:09;;;;;;;19.48;10.38;;;9.10;99.90;;;;;;5054016;28;20551;-52
2022/10/09 02:33:35;;;;;;;14.25;10.32;;;9.00;99.90;;;;;;5050812;28;20100;-52
2022/10/09 02:36:01;;;;;;;12.90;10.23;;;8.90;99.90;;;;;;5050773;28;20017;-51
2022/10/09 02:38:27;;;;;;;15.57;10.23;;;8.90;99.90;;;;;;5050835;28;20033;-51
2022/10/09 02:40:58;;;;;;;14.38;9.73;;;8.90;99.90;;;;;;5050673;28;20021;-52
2022/10/09 02:43:24;;;;;;;20.90;10.48;;;8.80;99.90;;;;;;5054388;28;20055;-52
2022/10/09 02:45:50;;;;;;;10.15;9.07;;;8.80;99.90;;;;;;5067661;28;20024;-54
2022/10/09 02:48:15;;;;;;;16.08;10.05;;;8.60;99.90;;;;;;5073805;28;20108;-53
2022/10/09 02:50:41;;;;;;;15.77;9.63;;;8.60;99.90;;;;;;5073322;28;20020;-52
2022/10/09 02:53:07;;;;;;;15.02;8.95;;;8.60;99.90;;;;;;5072808;28;20020;-51
2022/10/09 02:55:34;;;;;;;17.02;9.63;;;8.50;99.90;;;;;;5074400;28;20025;-52
2022/10/09 02:58:00;;;;;;;13.98;8.95;;;8.40;99.90;;;;;;5072585;28;20069;-51
2022/10/09 03:00:25;;;;;;;14.60;9.70;;;8.40;99.90;;;;;;5074227;28;20107;-51
2022/10/09 03:02:51;;;;;;;15.07;9.07;;;8.40;99.90;;;;;;5061629;28;20747;-52
2022/10/09 03:05:16;;;;;;;10.23;8.20;;;8.40;99.90;;;;;;5054147;28;20033;-51
2022/10/09 03:07:49;;;;;;;10.40;8.63;;;8.30;99.90;;;;;;5054214;28;20488;-51
2022/10/09 03:10:18;;;;;;;22.45;9.73;;;8.10;99.90;;;;;;5053893;28;20041;-52
2022/10/09 03:12:44;;;;;;;30.58;10.30;;;8.00;99.90;;;;;;5053953;28;20469;-51
2022/10/09 03:15:11;;;;;;;14.65;10.23;;;8.00;99.90;;;;;;5053820;28;20025;-51
2022/10/09 03:17:37;;;;;;;14.15;9.38;;;8.00;99.90;;;;;;5066326;28;20440;-54
2022/10/09 03:20:03;;;;;;;17.98;9.63;;;7.90;99.90;;;;;;5055726;28;20544;-55
2022/10/09 03:22:29;;;;;;;16.70;9.52;;;7.90;99.90;;;;;;5053853;28;20384;-53
2022/10/09 03:24:55;;;;;;;10.25;8.45;;;7.90;99.90;;;;;;5053747;28;20021;-51
2022/10/09 03:27:20;;;;;;;10.00;7.80;;;7.90;99.90;;;;;;5053714;28;20021;-51
2022/10/09 03:29:46;;;;;;;16.35;9.80;;;7.90;99.90;;;;;;5053821;28;20052;-52
2022/10/09 03:32:12;;;;;;;11.60;9.68;;;7.90;99.90;;;;;;5053662;28;20770;-51
2022/10/09 03:34:37;;;;;;;15.13;9.35;;;7.90;99.90;;;;;;5068310;28;20029;-52
2022/10/09 03:37:04;;;;;;;12.63;9.25;;;7.90;99.90;;;;;;5073663;28;20024;-52
2022/10/09 03:39:29;;;;;;;11.90;8.82;;;7.80;99.90;;;;;;5073547;28;20021;-51
2022/10/09 03:41:55;;;;;;;14.23;8.70;;;7.80;99.90;;;;;;5073449;28;20482;-51
2022/10/09 03:44:21;;;;;;;13.25;11.88;;;7.80;99.90;;;;;;5058492;28;20480;-52
2022/10/09 03:46:46;;;;;;;24.23;10.38;;;7.80;99.90;;;;;;5053497;28;20517;-50
2022/10/09 03:49:12;;;;;;;16.42;8.80;;;7.70;99.90;;;;;;5053341;28;20356;-51
2022/10/09 03:51:38;;;;;;;14.05;9.15;;;7.80;99.90;;;;;;5054463;28;20037;-52
2022/10/09 03:54:04;;;;;;;18.50;8.80;;;7.70;99.90;;;;;;5053189;28;20024;-52
2022/10/09 03:56:30;;;;;;;14.50;7.90;;;7.70;99.90;;;;;;5053330;28;20010;-53
2022/10/09 03:58:55;;;;;;;11.77;6.85;;;7.60;99.90;;;;;;5054224;28;20028;-52
2022/10/09 04:01:21;;;;;;;13.38;7.93;;;7.60;99.90;;;;;;5053141;28;20080;-52
2022/10/09 04:03:47;;;;;;;14.18;7.85;;;7.60;99.90;;;;;;5053117;28;20118;-52
2022/10/09 04:06:12;;;;;;;10.25;7.57;;;7.50;99.90;;;;;;5051618;28;20021;-53
2022/10/09 04:08:38;;;;;;;17.00;9.23;;;7.50;99.90;;;;;;5052849;28;20021;-52
2022/10/09 04:11:04;;;;;;;19.83;8.82;;;7.50;99.90;;;;;;5059493;28;20056;-51
2022/10/09 04:13:29;;;;;;;16.85;8.27;;;7.40;99.90;;;;;;5053086;28;20108;-52
2022/10/09 04:15:55;;;;;;;15.88;9.23;;;7.40;99.90;;;;;;5052844;28;20492;-51
2022/10/09 04:18:22;;;;;;;23.20;10.20;;;7.40;99.90;;;;;;5052981;28;20052;-52
2022/10/09 04:20:51;;;;;;;16.30;10.35;;;7.40;99.90;;;;;;5052970;28;20504;-52
2022/10/09 04:23:18;;;;;;;17.48;10.85;;;7.50;99.90;;;;;;5052746;28;20036;-56
2022/10/09 04:25:44;;;;;;;17.15;11.23;;;7.50;99.90;;;;;;5052726;28;20461;-51
2022/10/09 04:28:10;;;;;;;20.10;10.80;;;7.60;99.90;;;;;;5052528;28;20097;-52
2022/10/09 04:30:36;;;;;;;18.80;11.85;;;7.70;99.90;;;;;;5052681;28;20059;-51
2022/10/09 04:33:02;;;;;;;23.90;11.55;;;7.70;99.90;;;;;;5052524;28;20113;-52
2022/10/09 04:35:27;;;;;;;19.08;12.68;;;7.80;99.90;;;;;;5052589;28;20029;-52
2022/10/09 04:37:53;;;;;;;18.27;11.35;;;8.00;99.90;;;;;;5065757;28;20104;-52
2022/10/09 04:40:18;;;;;;;18.77;11.32;;;8.10;99.90;;;;;;5072507;28;20123;-52
2022/10/09 04:42:44;;;;;;;23.52;12.57;;;8.20;99.90;;;;;;5072480;28;20028;-54
2022/10/09 04:45:10;;;;;;;18.85;12.05;;;8.30;99.90;;;;;;5070918;28;20068;-54
2022/10/09 04:47:35;;;;;;;22.05;11.50;;;8.40;99.90;;;;;;5072240;28;20103;-52
2022/10/09 04:50:01;;;;;;;22.75;12.40;;;8.40;99.90;;;;;;5072304;28;20013;-52
2022/10/09 04:52:27;;;;;;;18.75;12.77;;;8.40;99.90;;;;;;5059741;28;20041;-51
2022/10/09 04:54:53;;;;;;;19.17;12.30;;;8.40;99.90;;;;;;5052054;28;20037;-52
2022/10/09 04:57:18;;;;;;;20.65;11.73;;;8.50;99.90;;;;;;5051727;28;20025;-50
2022/10/09 04:59:44;;;;;;;23.92;13.60;;;8.50;99.90;;;;;;5051274;28;20044;-51
2022/10/09 05:02:10;;;;;;;21.70;13.50;;;8.50;99.90;;;;;;5051080;28;20094;-52
2022/10/09 05:04:35;;;;;;;24.33;13.48;;;8.50;99.90;;;;;;5051070;28;20409;-55
2022/10/09 05:07:01;;;;;;;26.70;15.15;;;8.50;99.90;;;;;;5070489;28;20651;-56
2022/10/09 05:09:27;;;;;;;24.17;15.55;;;8.40;99.90;;;;;;5070657;28;20072;-52
2022/10/09 05:11:52;;;;;;;26.38;15.65;;;8.40;99.90;;;;;;5070800;28;20027;-53
2022/10/09 05:14:18;;;;;;;26.27;17.02;;;8.40;99.90;;;;;;5070816;28;20024;-55
2022/10/09 05:16:44;;;;;;;29.85;17.45;;;8.40;99.90;;;;;;5071648;28;20040;-57
2022/10/09 05:19:09;;;;;;;28.35;18.90;;;8.40;99.90;;;;;;5071497;28;20124;-56
2022/10/09 05:21:35;;;;;;;33.72;21.15;;;8.50;99.90;;;;;;5071581;28;20107;-53
2022/10/09 05:24:01;;;;;;;34.80;18.63;;;8.50;99.90;;;;;;5071437;28;20696;-54
2022/10/09 05:26:27;;;;;;;38.95;21.20;;;8.50;99.90;;;;;;5071600;28;20032;-52
2022/10/09 05:28:53;;;;;;;38.03;22.27;;;8.50;99.90;;;;;;5071525;28;20016;-54
2022/10/09 05:31:28;;;;;;;31.40;20.65;;;8.60;99.90;;;;;;5052405;28;20025;-54
2022/10/09 05:33:57;;;;;;;43.17;21.38;;;8.60;99.90;;;;;;5051279;28;20601;-55
2022/10/09 05:36:22;;;;;;;30.35;21.35;;;8.60;99.90;;;;;;5051485;28;20124;-54
2022/10/09 05:38:48;;;;;;;31.98;20.25;;;8.60;99.90;;;;;;5051648;28;20104;-53
2022/10/09 05:41:16;;;;;;;30.73;20.20;;;8.60;99.90;;;;;;5051496;28;20388;-55
2022/10/09 05:43:45;;;;;;;30.27;20.00;;;8.60;99.90;;;;;;5055791;28;20016;-52
2022/10/09 05:46:15;;;;;;;32.70;17.98;;;8.70;99.90;;;;;;5071132;28;20021;-53
2022/10/09 05:48:43;;;;;;;31.25;17.75;;;8.70;99.90;;;;;;5049096;28;20059;-52
2022/10/09 05:51:17;;;;;;;27.92;16.38;;;8.70;99.90;;;;;;5029424;28;20095;-53
2022/10/09 05:53:43;;;;;;;;;;;8.80;99.90;;;;;;5039948;28;20083;-54
2022/10/09 05:56:13;;;;;;;24.80;15.88;;;8.80;99.90;;;;;;5040278;28;19921;-55
2022/10/09 05:58:39;;;;;;;22.98;14.45;;;8.80;99.90;;;;;;5041392;28;20061;-57
2022/10/09 06:01:04;;;;;;;20.92;13.55;;;8.90;99.90;;;;;;5038286;28;20079;-51
2022/10/09 06:03:30;;;;;;;22.98;12.95;;;8.80;99.90;;;;;;5039807;28;20036;-54
2022/10/09 06:06:00;;;;;;;15.88;12.45;;;8.90;99.90;;;;;;5040341;28;20085;-54
2022/10/09 06:08:26;;;;;;;18.60;12.75;;;8.90;99.90;;;;;;5056980;28;20115;-56
2022/10/09 06:10:52;;;;;;;19.88;12.07;;;9.00;99.90;;;;;;5040091;28;20108;-52
2022/10/09 06:13:17;;;;;;;20.65;12.75;;;8.90;99.90;;;;;;5041547;28;20055;-51
2022/10/09 06:15:55;;;;;;;20.00;10.68;;;9.00;99.90;;;;;;5040235;28;20035;-53
2022/10/09 06:18:21;;;;;;;13.88;10.40;;;9.10;99.90;;;;;;5064035;28;20468;-52
2022/10/09 06:20:57;;;;;;;16.38;10.50;;;9.10;99.90;;;;;;5075359;28;20025;-54
2022/10/09 06:23:23;;;;;;;22.08;10.73;;;9.10;99.90;;;;;;5075320;28;20036;-51
2022/10/09 06:26:00;;;;;;;16.05;9.52;;;9.20;99.90;;;;;;5075181;28;20032;-53
2022/10/09 06:28:30;;;;;;;16.67;10.55;;;9.30;99.90;;;;;;5074165;28;20028;-55
2022/10/09 06:31:10;;;;;;;22.50;8.82;;;9.30;99.90;;;;;;5064435;28;20035;-51
2022/10/09 06:33:38;;;;;;;12.40;10.07;;;9.40;99.90;;;;;;5053558;28;20017;-54
2022/10/09 06:36:18;;;;;;;14.35;8.75;;;9.50;99.90;;;;;;5062336;28;20020;-52
2022/10/09 06:38:44;;;;;;;16.38;8.23;;;9.50;99.90;;;;;;5043360;28;20178;-58
2022/10/09 06:41:12;;;;;;;15.93;7.65;;;9.60;99.90;;;;;;5047954;28;20029;-56
2022/10/09 06:43:39;;;;;;;17.85;8.02;;;9.70;99.90;;;;;;5057694;28;20040;-53
2022/10/09 06:46:10;;;;;;;13.85;7.93;;;9.70;99.90;;;;;;5043269;28;20040;-57
2022/10/09 06:48:38;;;;;;;20.13;8.15;;;9.80;99.90;;;;;;5044212;28;20033;-53
2022/10/09 06:51:09;;;;;;;16.27;7.63;;;9.80;99.90;;;;;;5041433;28;20033;-57
2022/10/09 06:53:37;;;;;;;13.95;8.75;;;9.90;99.90;;;;;;5043555;28;20436;-53
2022/10/09 06:56:03;;;;;;;26.92;7.57;;;10.00;99.90;;;;;;5044220;28;20036;-58
2022/10/09 06:58:29;;;;;;;10.07;7.78;;;10.00;99.90;;;;;;5042269;28;20029;-55
2022/10/09 07:01:02;;;;;;;10.80;8.05;;;10.10;99.90;;;;;;5044562;28;20033;-55
2022/10/09 07:03:27;;;;;;;10.10;5.93;;;10.10;99.90;;;;;;5043936;28;20120;-56
2022/10/09 07:05:53;;;;;;;11.38;5.90;;;10.20;99.90;;;;;;5043866;28;20112;-54
2022/10/09 07:08:19;;;;;;;12.93;6.07;;;10.20;99.90;;;;;;5042899;28;20036;-53
2022/10/09 07:10:45;;;;;;;17.80;7.20;;;10.30;99.90;;;;;;5043520;28;20037;-56
2022/10/09 07:13:10;;;;;;;14.40;6.50;;;10.30;99.90;;;;;;5043238;28;20035;-56
2022/10/09 07:15:43;;;;;;;14.73;12.13;;;10.20;99.90;;;;;;5045039;28;20025;-53
2022/10/09 07:18:08;;;;;;;14.68;10.43;;;10.20;99.90;;;;;;5043065;28;20037;-56
2022/10/09 07:20:35;;;;;;;11.57;8.02;;;10.30;99.90;;;;;;5043666;28;20025;-55
2022/10/09 07:23:00;;;;;;;13.77;6.63;;;10.30;99.90;;;;;;5042139;28;22651;-58
2022/10/09 07:25:26;;;;;;;11.05;6.25;;;10.40;99.90;;;;;;5043240;28;20025;-57
2022/10/09 07:27:52;;;;;;;14.30;5.68;;;10.30;99.90;;;;;;5042234;28;20041;-56
2022/10/09 07:30:17;;;;;;;6.05;5.07;;;10.50;99.90;;;;;;5041433;28;20029;-54
2022/10/09 07:32:43;;;;;;;11.07;6.55;;;10.50;99.90;;;;;;5043760;28;20059;-55
2022/10/09 07:35:09;;;;;;;11.55;7.57;;;10.50;99.90;;;;;;5042633;28;20040;-55
2022/10/09 07:37:35;;;;;;;16.10;7.22;;;10.60;99.90;;;;;;5042041;28;20382;-56
2022/10/09 07:40:00;;;;;;;12.43;5.78;;;10.70;99.90;;;;;;5043723;28;20035;-55
2022/10/09 07:42:26;;;;;;;9.90;5.50;;;10.70;99.90;;;;;;5042721;28;20029;-54
2022/10/09 07:44:52;;;;;;;23.23;7.38;;;10.90;99.90;;;;;;5042863;28;20056;-56
2022/10/09 07:47:17;;;;;;;10.57;5.50;;;11.00;99.90;;;;;;5041950;28;20107;-62
2022/10/09 07:49:43;;;;;;;9.82;5.38;;;11.10;99.90;;;;;;5042739;28;20476;-56
2022/10/09 07:52:08;;;;;;;20.42;6.13;;;11.20;99.90;;;;;;5043111;28;20033;-55
2022/10/09 07:54:34;;;;;;;8.95;5.57;;;11.40;99.90;;;;;;5043051;28;20025;-56
2022/10/09 07:57:00;;;;;;;9.57;6.10;;;11.60;99.90;;;;;;5042211;28;20033;-58
2022/10/09 07:59:25;;;;;;;7.13;4.30;;;11.70;99.90;;;;;;5042661;28;20029;-55
2022/10/09 08:01:51;;;;;;;6.55;5.07;;;11.70;99.90;;;;;;5042291;28;20048;-56
2022/10/09 08:04:16;;;;;;;6.80;4.88;;;11.80;99.90;;;;;;5043590;28;20078;-55
2022/10/09 08:06:42;;;;;;;8.15;4.85;;;11.70;99.90;;;;;;5042148;28;20078;-53
2022/10/09 08:09:08;;;;;;;12.95;6.45;;;11.80;99.90;;;;;;5041624;28;20407;-55
2022/10/09 08:11:34;;;;;;;15.38;9.30;;;11.80;99.90;;;;;;5046988;28;20035;-54
2022/10/09 08:14:00;;;;;;;9.30;5.10;;;11.80;99.90;;;;;;5059415;28;20023;-56
2022/10/09 08:16:26;;;;;;;8.20;5.18;;;11.80;99.90;;;;;;5073126;28;20563;-55
2022/10/09 08:18:59;;;;;;;10.18;4.50;;;12.00;99.90;;;;;;5072896;28;20028;-56
2022/10/09 08:21:27;;;;;;;7.43;5.00;;;12.10;99.90;;;;;;5072895;28;20035;-56
2022/10/09 08:23:55;;;;;;;9.48;4.38;;;12.10;99.90;;;;;;5071519;28;20456;-57
2022/10/09 08:26:22;;;;;;;8.95;4.90;;;12.20;99.90;;;;;;5073036;28;20052;-54
2022/10/09 08:28:56;;;;;;;25.30;13.20;;;12.20;99.90;;;;;;5065551;28;20071;-58
2022/10/09 08:31:23;;;;;;;64.68;22.50;;;12.30;99.90;;;;;;5052809;28;20431;-54
2022/10/09 08:33:53;;;;;;;36.25;14.13;;;12.30;99.90;;;;;;5052972;28;20044;-56
2022/10/09 08:36:18;;;;;;;131.75;38.55;;;12.50;99.90;;;;;;5053852;28;20021;-53
2022/10/09 08:38:44;;;;;;;41.35;23.63;;;12.50;99.90;;;;;;5052189;28;20033;-56
2022/10/09 08:41:30;;;;;;;18.58;9.45;;;12.50;99.90;;;;;;5066898;28;20071;-54
2022/10/09 08:44:24;;;;;;;11.45;8.48;;;12.50;99.90;;;;;;5071946;28;20103;-56
2022/10/09 08:47:09;;;;;;;;;;;12.60;99.90;;;;;;5072318;28;20137;-56
2022/10/09 08:49:57;;;;;;;13.82;5.80;;;12.70;99.90;;;;;;5059105;28;19908;-54
2022/10/09 08:52:50;;;;;;;18.65;7.60;;;12.90;99.90;;;;;;5055317;28;20021;-56
2022/10/09 08:55:26;;;;;;;10.95;5.43;;;13.10;99.90;;;;;;5061734;28;20396;-56
2022/10/09 08:58:00;;;;;;;14.07;5.20;;;13.30;99.90;;;;;;5066972;28;20036;-55
2022/10/09 09:00:39;;;;;;;10.98;5.40;;;13.30;99.90;;;;;;5066026;28;20049;-57
2022/10/09 09:03:41;;;;;;;16.00;5.95;;;13.50;99.90;;;;;;5065899;28;20070;-58
2022/10/09 09:06:13;;;;;;;8.82;5.22;;;13.30;99.90;;;;;;5080303;28;20020;-57
2022/10/09 09:08:43;;;;;;;7.85;5.55;;;13.30;99.90;;;;;;5073123;28;20051;-56
2022/10/09 09:11:24;;;;;;;8.77;4.93;;;13.80;99.90;;;;;;5076283;28;20008;-56
2022/10/09 09:13:53;;;;;;;10.57;5.57;;;14.00;99.90;;;;;;5091796;28;20738;-55
2022/10/09 09:16:24;;;;;;;14.05;5.28;;;14.00;99.90;;;;;;5091951;28;20016;-57
2022/10/09 09:19:19;;;;;;;5.43;4.90;;;14.30;99.90;;;;;;5092301;28;20056;-54
2022/10/09 09:21:50;;;;;;;12.48;5.85;;;14.50;99.90;;;;;;5090889;28;20028;-55
2022/10/09 09:24:32;;;;;;;13.73;5.07;;;14.80;99.90;;;;;;5055636;28;20112;-55
2022/10/09 09:27:01;;;;;;;11.45;5.18;;;15.00;99.90;;;;;;5051410;28;20166;-54
2022/10/09 09:29:30;;;;;;;11.07;5.32;;;15.10;99.90;;;;;;5051852;28;20017;-55
2022/10/09 09:32:00;;;;;;;8.50;4.85;;;14.90;99.90;;;;;;5051648;28;20455;-56
2022/10/09 09:34:33;;;;;;;10.75;5.18;;;14.80;99.90;;;;;;5051438;28;20048;-57
2022/10/09 09:36:59;;;;;;;10.60;4.80;;;14.70;99.90;;;;;;5051517;28;20032;-56
2022/10/09 09:39:28;;;;;;;10.77;4.78;;;14.60;99.90;;;;;;5051466;28;20469;-53
2022/10/09 09:42:11;;;;;;;7.78;4.57;;;14.70;99.90;;;;;;5051455;28;20098;-57
2022/10/09 09:45:06;;;;;;;10.13;5.28;;;14.60;99.90;;;;;;5066578;28;20082;-57
2022/10/09 09:47:42;;;;;;;9.75;5.03;;;14.50;99.90;;;;;;5071191;28;20111;-56
2022/10/09 09:50:07;;;;;;;16.15;4.90;;;14.60;99.90;;;;;;5071023;28;20052;-56
2022/10/09 09:52:36;;;;;;;11.43;5.25;;;14.80;99.90;;;;;;5061211;28;20060;-57
2022/10/09 09:55:03;;;;;;;9.27;5.03;;;14.80;99.90;;;;;;5040244;28;20053;-54
2022/10/09 09:57:41;;;;;;;11.05;4.82;;;15.20;99.90;;;;;;5040860;28;20191;-55
2022/10/09 10:00:24;;;;;;;9.35;4.57;;;15.70;99.90;;;;;;5041188;28;20040;-57
2022/10/09 10:03:03;;;;;;;9.43;4.38;;;15.90;99.90;;;;;;5040576;28;20048;-55
2022/10/09 10:05:35;;;;;;;6.28;4.38;;;16.40;99.90;;;;;;5042708;28;20035;-54
2022/10/09 10:08:12;;;;;;;6.85;4.75;;;16.70;99.90;;;;;;5040604;28;20083;-56
2022/10/09 10:10:44;;;;;;;8.82;5.25;;;16.30;99.90;;;;;;5040422;28;20508;-56
2022/10/09 10:13:19;;;;;;;11.52;4.25;;;16.00;99.90;;;;;;5041484;28;20468;-56
2022/10/09 10:15:53;;;;;;;8.52;4.40;;;16.40;99.90;;;;;;5043248;28;20071;-55
2022/10/09 10:18:21;;;;;;;10.93;4.68;;;16.80;99.90;;;;;;5040223;28;20028;-58
2022/10/09 10:20:56;;;;;;;14.27;4.95;;;17.70;99.90;;;;;;5039576;28;20369;-54
2022/10/09 10:23:33;;;;;;;10.60;3.95;;;17.70;99.70;;;;;;5041440;28;20028;-56
2022/10/09 10:26:21;;;;;;;6.97;3.47;;;18.10;98.80;;;;;;5039897;28;20127;-55
2022/10/09 10:28:52;;;;;;;10.40;4.35;;;17.70;97.70;;;;;;5039657;28;20033;-56
2022/10/09 10:31:33;;;;;;;6.88;3.53;;;17.20;98.50;;;;;;5040716;28;20025;-55
2022/10/09 10:34:02;;;;;;;6.35;3.45;;;16.90;98.60;;;;;;5040778;28;20017;-55
2022/10/09 10:36:28;;;;;;;13.70;3.67;;;16.40;99.70;;;;;;5041386;28;20025;-54
2022/10/09 10:39:40;;;;;;;13.98;3.72;;;16.50;99.90;;;;;;5039552;28;20110;-57
2022/10/09 10:42:16;;;;;;;7.70;3.80;;;16.40;99.00;;;;;;5043495;28;20085;-56
2022/10/09 10:44:51;;;;;;;9.80;3.80;;;16.40;99.20;;;;;;5039971;28;20404;-54
2022/10/09 10:47:23;;;;;;;9.02;3.58;;;16.40;99.00;;;;;;5039700;28;20080;-55
2022/10/09 10:49:49;;;;;;;8.90;3.78;;;16.60;98.60;;;;;;5039753;28;20358;-55
2022/10/09 10:52:30;;;;;;;9.55;2.63;;;16.40;98.00;;;;;;5040955;28;20499;-55
2022/10/09 10:55:29;;;;;;;4.35;2.75;;;16.50;97.90;;;;;;5039945;28;20025;-57
2022/10/09 10:57:59;;;;;;;8.05;2.60;;;17.00;96.90;;;;;;5040312;28;20044;-57
2022/10/09 11:00:27;;;;;;;4.80;2.60;;;17.20;96.10;;;;;;5040331;28;20035;-56
2022/10/09 11:02:57;;;;;;;10.65;3.03;;;16.90;95.20;;;;;;5041203;28;20033;-55
2022/10/09 11:05:25;;;;;;;4.80;2.70;;;17.30;94.80;;;;;;5043511;28;20078;-55
2022/10/09 11:07:57;;;;;;;5.75;2.47;;;17.30;95.20;;;;;;5042658;28;20541;-57
2022/10/09 11:10:34;;;;;;;5.90;2.40;;;17.50;93.70;;;;;;5041546;28;20072;-51
2022/10/09 11:13:21;;;;;;;7.47;2.15;;;17.90;92.50;;;;;;5042407;28;20086;-56
2022/10/09 11:16:05;;;;;;;4.45;1.90;;;18.40;91.90;;;;;;5042449;28;20037;-56
2022/10/09 11:18:39;;;;;;;5.53;2.50;;;19.10;90.60;;;;;;5040918;28;20033;-56
2022/10/09 11:21:25;;;;;;;5.20;1.98;;;19.50;90.10;;;;;;5041065;28;20029;-55
2022/10/09 11:23:59;;;;;;;4.75;2.22;;;19.70;86.90;;;;;;5040979;28;20025;-56
2022/10/09 11:26:40;;;;;;;8.82;2.45;;;19.50;87.40;;;;;;5041375;28;20029;-56
2022/10/09 11:29:15;;;;;;;9.27;2.80;;;19.50;85.50;;;;;;5041507;28;20035;-57
2022/10/09 11:31:52;;;;;;;12.07;2.33;;;19.00;85.80;;;;;;5040862;28;20090;-55
2022/10/09 11:34:28;;;;;;;10.15;1.88;;;19.30;84.10;;;;;;5040756;28;20037;-56
2022/10/09 11:36:55;;;;;;;5.38;2.45;;;19.40;85.20;;;;;;5041496;28;20115;-51
2022/10/09 11:39:24;;;;;;;4.60;2.40;;;19.70;82.60;;;;;;5049942;28;20337;-56
2022/10/09 11:41:53;;;;;;;6.28;2.30;;;20.10;81.80;;;;;;5040789;28;20622;-55
2022/10/09 11:44:24;;;;;;;15.68;2.20;;;20.00;80.80;;;;;;5041498;28;20174;-56
2022/10/09 11:47:08;;;;;;;4.63;2.17;;;20.20;82.30;;;;;;5045799;28;20320;-57
2022/10/09 11:49:53;;;;;;;3.40;2.13;;;19.70;82.20;;;;;;5045112;28;20032;-55
2022/10/09 11:52:46;;;;;;;3.53;1.77;;;19.80;80.40;;;;;;5044880;28;20017;-56
2022/10/09 11:55:22;;;;;;;8.30;2.35;;;19.40;81.70;;;;;;5040969;28;20056;-58
2022/10/09 11:57:48;;;;;;;11.05;2.70;;;20.10;78.80;;;;;;5041285;28;20104;-58
2022/10/09 12:00:15;;;;;;;9.10;1.60;;;19.50;80.90;;;;;;5040521;28;20029;-54
2022/10/09 12:02:42;;;;;;;15.07;1.95;;;20.20;79.80;;;;;;5041532;28;20059;-58
2022/10/09 12:05:15;;;;;;;8.23;2.28;;;20.80;79.60;;;;;;5060472;28;20028;-58
2022/10/09 12:07:41;;;;;;;49.13;3.42;;;21.40;76.30;;;;;;5060950;28;20020;-59
2022/10/09 12:10:31;;;;;;;7.05;1.58;;;21.90;74.60;;;;;;5059851;28;20045;-58
2022/10/09 12:13:03;;;;;;;4.28;1.80;;;22.70;71.50;;;;;;5056154;28;20361;-57
2022/10/09 12:15:47;;;;;;;5.87;1.80;;;22.50;70.10;;;;;;5055387;28;20048;-59
2022/10/09 12:18:36;;;;;;;6.28;2.45;;;22.50;70.20;;;;;;5059859;28;20762;-55
2022/10/09 12:21:05;;;;;;;16.70;1.77;;;22.70;70.80;;;;;;5055601;28;20074;-59
2022/10/09 12:23:34;;;;;;;3.30;1.40;;;23.40;68.60;;;;;;5040939;28;20025;-57
2022/10/09 12:26:02;;;;;;;5.30;1.58;;;23.40;66.40;;;;;;5039722;28;20044;-58
2022/10/09 12:28:49;;;;;;;5.90;1.42;;;23.80;64.10;;;;;;5040585;28;20388;-58
2022/10/09 12:31:35;;;;;;;6.40;1.50;;;24.20;65.30;;;;;;5040895;28;20313;-58
2022/10/09 12:34:05;;;;;;;9.13;1.63;;;24.20;62.20;;;;;;5039491;28;20398;-58
2022/10/09 12:36:32;;;;;;;9.38;2.03;;;24.30;59.50;;;;;;5040320;28;20021;-59
2022/10/09 12:39:21;;;;;;;5.05;1.77;;;23.30;61.10;;;;;;5040656;28;20043;-58
2022/10/09 12:41:51;;;;;;;4.57;1.88;;;24.10;61.40;;;;;;5040123;28;20025;-57
2022/10/09 12:44:32;;;;;;;6.90;2.53;;;22.40;59.90;;;;;;5040393;28;20032;-58
2022/10/09 12:47:07;;;;;;;5.47;1.92;;;21.60;62.10;;;;;;5041822;28;20043;-56
2022/10/09 12:49:34;;;;;;;8.13;2.03;;;21.30;62.80;;;;;;5051900;28;20097;-59
2022/10/09 12:52:00;;;;;;;11.35;1.67;;;22.00;62.50;;;;;;5052263;28;20017;-58
2022/10/09 12:54:29;;;;;;;15.00;1.75;;;22.40;62.60;;;;;;5051529;28;20357;-57
2022/10/09 12:56:56;;;;;;;2.30;1.38;;;22.00;62.00;;;;;;5051103;28;20104;-58